Coatbridge, United Kingdom
Current Conditions -  °F | °C
As of 6:50 PM on Thursday 30 Oct 2014 (Local Time) from EGPF Reporting Station
Haze Haze  
Wind Chill: 10°   Ceiling: 2900
Heat Index: 10°   Visibility: 2.1mi
Dew Point: 10°   Wind: 3mph
Humidity: 100%   Direction: 50°NE
Pressure: 29.85"   Gusts: NA
Location:  55.86°N, 4.03°W
Report Text: EGPF 301850Z AUTO 05003KT 3500 BR FEW016 OVC029 10/10 Q1011
Loading
Personal Weather Stations






























Interactive Weather Map
Tropical Storm Tracking
New forecast layout! Learn more

10-Day Weather Forecast

Advertisements
Track Severe Weather on mobile